Eships Dana — ZDJT6 — position and weather

sailwx.info

Track history (hours):
 
Tides and Currents Weather Stations Pressure Air Temp Water Temp Dewpoint Dewpoint Depression Visibility Wind Speed Wind Dir Waves Ship Positions

Eships Dana

Last reported at 2017-Mar-24 07:31 UTC. Time now 2017-Mar-24 08:14 UTC.
Position N 51°25' E 002°36'.

Length 116 m; draft 5.7 m.

Type: Ship (hazmat cat A). MMSI: 236566000.

Date/timePositionNaut miles runAvg speedWind from/ knotsBaromVisibWave heightAir tempDewpointWater temp
2017-Mar-24 07:31N 51°25' E 002°36'0 0.0
2017-Mar-24 06:31N 51°25' E 002°36'0 0.0
2017-Mar-24 05:31N 51°25' E 002°36'0 0.0
2017-Mar-24 04:31N 51°25' E 002°36'0 0.0
2017-Mar-24 03:31N 51°25' E 002°36'0 0.0
2017-Mar-24 02:31N 51°25' E 002°36'0 0.0
2017-Mar-24 01:25N 51°25' E 002°36'0 0.0
2017-Mar-24 00:32N 51°25' E 002°36'0 0.0
2017-Mar-23 23:31N 51°25' E 002°36'0 0.0
2017-Mar-23 22:31N 51°25' E 002°36'0 0.0
2017-Mar-23 21:31N 51°25' E 002°36'0 0.0
2017-Mar-23 20:31N 51°25' E 002°36'0 0.0
2017-Mar-23 19:31N 51°25' E 002°36'0 0.0
2017-Mar-23 18:31N 51°25' E 002°36'0 0.0
2017-Mar-23 17:31N 51°25' E 002°36'0 0.0
2017-Mar-23 16:28N 51°25' E 002°36'0 0.0
2017-Mar-23 15:31N 51°25' E 002°36'0 0.0
2017-Mar-23 14:31N 51°25' E 002°36'0 0.0
2017-Mar-23 13:31N 51°25' E 002°36'0 0.0
2017-Mar-23 12:33N 51°25' E 002°36'0 0.0
2017-Mar-23 11:31N 51°25' E 002°36'0 0.0
2017-Mar-23 10:31N 51°25' E 002°36'0 0.0
2017-Mar-23 09:31N 51°25' E 002°36'0 0.0
2017-Mar-23 08:31N 51°25' E 002°36'0 0.0
2017-Mar-23 07:31N 51°25' E 002°36'0 0.0
2017-Mar-23 06:34N 51°25' E 002°36'1 0.8
2017-Mar-23 05:33N 51°24' E 002°36'1211.7
2017-Mar-23 04:34N 51°23' E 002°55'1414.4
2017-Mar-23 03:33N 51°24' E 003°18'1313.3
2017-Mar-23 02:33N 51°26' E 003°39'1211.5
2017-Mar-23 01:33N 51°23' E 003°57'9 9.2
2017-Mar-23 00:33N 51°24' E 004°11'9 8.9
2017-Mar-22 23:34N 51°16' E 004°17'1 0.8
2017-Mar-22 22:33N 51°16' E 004°16'0 0.4
2017-Mar-22 21:32N 51°16' E 004°15'0 0.0
2017-Mar-22 20:32N 51°16' E 004°15'0 0.0
2017-Mar-22 19:32N 51°16' E 004°15'0 0.0
2017-Mar-22 18:32N 51°16' E 004°15'0 0.0
2017-Mar-22 17:32N 51°16' E 004°15'0 0.0
2017-Mar-22 16:33N 51°16' E 004°15'0 0.0
2017-Mar-22 15:29N 51°16' E 004°15'0 0.0
2017-Mar-22 14:32N 51°16' E 004°15'0 0.0
2017-Mar-22 13:32N 51°16' E 004°15'0 0.0
2017-Mar-22 12:33N 51°16' E 004°15'0 0.0
2017-Mar-22 11:33N 51°16' E 004°15'0 0.0
2017-Mar-22 10:33N 51°16' E 004°15'0 0.0
2017-Mar-22 09:33N 51°16' E 004°15'0 0.0
2017-Mar-22 08:26N 51°16' E 004°15'0 0.0
2017-Mar-22 07:29N 51°16' E 004°15'0 0.0
2017-Mar-22 06:33N 51°16' E 004°15'0 0.0
2017-Mar-22 05:29N 51°16' E 004°15'0 0.0
2017-Mar-22 04:32N 51°16' E 004°15'0 0.0
2017-Mar-22 03:27N 51°16' E 004°15'0 0.0
2017-Mar-22 02:32N 51°16' E 004°15'0 0.0
2017-Mar-22 01:32N 51°16' E 004°15'0 0.0
2017-Mar-22 00:33N 51°16' E 004°15'0 0.0
2017-Mar-21 23:32N 51°16' E 004°15'0 0.0
2017-Mar-21 22:32N 51°16' E 004°15'0 0.0
2017-Mar-21 21:26N 51°16' E 004°15'0 0.0
2017-Mar-21 20:32N 51°16' E 004°15'0 0.0
2017-Mar-21 19:32N 51°16' E 004°15'0 0.0
2017-Mar-21 18:33N 51°16' E 004°15'0 0.0
2017-Mar-21 17:32N 51°16' E 004°15'0 0.3
2017-Mar-21 16:34N 51°16' E 004°16'1 0.9
2017-Mar-21 15:33N 51°16' E 004°17'6 6.5
2017-Mar-21 14:33N 51°22' E 004°13'10 7.5
2017-Mar-21 13:12N 51°23' E 003°57'710.4
2017-Mar-21 12:33N 51°21' E 003°47'10 9.3
2017-Mar-21 11:31N 51°26' E 003°33'8 8.8
2017-Mar-21 10:33N 51°24' E 003°20'1212.2
2017-Mar-21 09:33N 51°25' E 003°00'1211.7
2017-Mar-21 08:33N 51°36' E 003°09'1310.5
2017-Mar-21 07:19N 51°47' E 003°17'2 2.3
2017-Mar-21 06:25N 51°48' E 003°21'0 0.0
2017-Mar-21 05:25N 51°48' E 003°21'0 0.0
2017-Mar-21 04:31N 51°48' E 003°21'0 0.0
2017-Mar-21 03:31N 51°48' E 003°21'0 0.0
2017-Mar-21 01:28N 51°48' E 003°21'0 0.0
2017-Mar-21 00:25N 51°48' E 003°21'0 0.1
2017-Mar-20 23:31N 51°48' E 003°21'0 0.0
2017-Mar-20 22:28N 51°48' E 003°21'0 0.0
2017-Mar-20 21:22N 51°48' E 003°21'0 0.0
2017-Mar-20 20:25N 51°48' E 003°21'0 0.0
2017-Mar-20 19:31N 51°48' E 003°21'0 0.0
2017-Mar-20 18:28N 51°48' E 003°21'0 0.0
2017-Mar-20 17:19N 51°48' E 003°21'0 0.0
2017-Mar-20 16:28N 51°48' E 003°21'0 0.0
2017-Mar-20 15:28N 51°48' E 003°21'0 0.0
2017-Mar-20 14:28N 51°48' E 003°21'0 0.0
2017-Mar-20 13:31N 51°48' E 003°21'0 0.0
2017-Mar-20 12:31N 51°48' E 003°21'0 0.0
2017-Mar-20 11:22N 51°48' E 003°21'0 0.0
2017-Mar-20 10:19N 51°48' E 003°21'0 0.0
2017-Mar-20 09:31N 51°48' E 003°21'0 0.0
2017-Mar-20 08:31N 51°48' E 003°21'0 0.0
2017-Mar-20 07:31N 51°48' E 003°21'0 0.0
2017-Mar-20 06:31N 51°48' E 003°21'0 0.0
2017-Mar-20 05:28N 51°48' E 003°21'0 0.0
2017-Mar-20 04:25N 51°48' E 003°21'0 0.0
2017-Mar-20 03:31N 51°48' E 003°21'0 0.0
2017-Mar-20 02:28N 51°48' E 003°21'0 0.0
2017-Mar-20 01:28N 51°48' E 003°21'0 0.0
2017-Mar-19 23:10N 51°48' E 003°21'0 0.0
2017-Mar-19 22:31N 51°48' E 003°21'0 0.0
2017-Mar-19 21:31N 51°48' E 003°21'0 0.0
2017-Mar-19 20:28N 51°48' E 003°21'0 0.0
2017-Mar-19 19:31N 51°48' E 003°21'0 0.0
2017-Mar-19 18:31N 51°48' E 003°21'0 0.0
2017-Mar-19 17:19N 51°48' E 003°21'0 0.0
2017-Mar-19 14:10N 51°48' E 003°21'0 0.0
2017-Mar-19 13:13N 51°48' E 003°21'0 0.0
2017-Mar-19 09:31N 51°48' E 003°21'0 0.0
2017-Mar-19 08:32N 51°48' E 003°21'4 3.6
2017-Mar-19 07:32N 51°48' E 003°15'17212.3
2017-Mar-18 17:31N 54°12' E 000°38'1313.7
2017-Mar-18 16:33N 54°24' E 000°27'1313.5
2017-Mar-18 15:33N 54°35' E 000°16'1313.2
2017-Mar-18 14:33N 54°46' E 000°02'5713.3
2017-Mar-18 10:18N 55°30' W 000°59'1113.8
2017-Mar-18 09:30N 55°39' W 001°11'1914.4
2017-Mar-18 08:10N 55°52' W 001°36'914.7
2017-Mar-18 07:32N 55°56' W 001°51'1414.2
2017-Mar-18 06:33N 56°02' W 002°13'1414.0
2017-Mar-18 05:34N 56°07' W 002°36'1313.4
2017-Mar-18 04:34N 56°03' W 002°59'1211.9
2017-Mar-18 03:34N 56°01' W 003°20'1110.4
2017-Mar-18 02:32N 56°02' W 003°39'1 0.0
2017-Mar-16 17:19N 56°02' W 003°41'11 6.2
2017-Mar-16 15:33N 56°01' W 003°22'1010.2
2017-Mar-16 14:33N 56°05' W 003°05'0 0.1
2017-Mar-16 13:33N 56°05' W 003°05'0 0.0
2017-Mar-16 12:33N 56°05' W 003°05'0 0.0
2017-Mar-16 11:33N 56°05' W 003°05'0 0.0
2017-Mar-16 10:33N 56°05' W 003°05'0 0.0
2017-Mar-16 09:33N 56°05' W 003°05'0 0.0
2017-Mar-16 08:33N 56°05' W 003°05'0 0.0
2017-Mar-16 07:33N 56°05' W 003°05'0 0.0
2017-Mar-16 06:33N 56°05' W 003°05'0 0.0
2017-Mar-16 05:33N 56°05' W 003°05'0 0.0
2017-Mar-16 04:33N 56°05' W 003°05'0 0.0
2017-Mar-16 03:33N 56°05' W 003°05'0 0.0
2017-Mar-16 02:33N 56°05' W 003°05'0 0.0
2017-Mar-16 01:33N 56°05' W 003°05'0 0.0
2017-Mar-16 00:33N 56°05' W 003°05'0 0.0
2017-Mar-15 23:33N 56°05' W 003°05'0 0.0
2017-Mar-15 22:33N 56°05' W 003°05'0 0.1
2017-Mar-15 21:33N 56°05' W 003°05'0 0.0
2017-Mar-15 20:33N 56°05' W 003°05'0 0.0
2017-Mar-15 19:33N 56°05' W 003°05'0 0.0
2017-Mar-15 18:33N 56°05' W 003°05'0 0.0
2017-Mar-15 17:33N 56°05' W 003°05'0 0.0
2017-Mar-15 16:33N 56°05' W 003°05'0 0.1
2017-Mar-15 15:33N 56°05' W 003°05'8 8.4
2017-Mar-15 14:33N 56°07' W 002°51'1010.1
2017-Mar-15 13:33N 56°07' W 002°33'1312.7
2017-Mar-15 12:33N 56°04' W 002°11'1313.3
2017-Mar-15 11:33N 55°56' W 001°51'1110.5
2017-Mar-15 10:33N 55°49' W 001°38'1413.9
2017-Mar-15 09:33N 55°38' W 001°22'1313.3
2017-Mar-15 08:33N 55°28' W 001°07'1312.6
2017-Mar-15 07:33N 55°18' W 000°53'1212.0
2017-Mar-15 06:33N 55°08' W 000°41'2311.6
2017-Mar-15 04:33N 54°50' W 000°16'1211.6
2017-Mar-15 03:33N 54°41' W 000°04'1212.0
2017-Mar-15 02:33N 54°32' E 000°09'1312.8
2017-Mar-15 01:33N 54°22' E 000°23'1413.6
2017-Mar-15 00:32N 54°11' E 000°38'14612.2
2017-Mar-14 12:30N 52°19' E 003°16'1212.2
2017-Mar-14 11:32N 52°12' E 003°31'3 2.5
2017-Mar-14 10:26N 52°11' E 003°35'0 0.0
2017-Mar-14 09:28N 52°11' E 003°35'0 0.1
2017-Mar-14 08:14N 52°11' E 003°36'  
Track history (hours):
 
Tides and Currents Weather Stations Pressure Air Temp Water Temp Dewpoint Dewpoint Depression Visibility Wind Speed Wind Dir Waves Ship Positions

Eships Dana

Last reported at 2017-Mar-24 07:31 UTC. Time now 2017-Mar-24 08:14 UTC.
Position N 51°25' E 002°36'.

Length 116 m; draft 5.7 m.

Type: Ship (hazmat cat A). MMSI: 236566000.

Date/timePositionNaut miles runAvg speedWind from/ knotsBaromVisibWave heightAir tempDewpointWater temp
2017-Mar-24 07:31N 51°25' E 002°36'0 0.0
2017-Mar-24 06:31N 51°25' E 002°36'0 0.0
2017-Mar-24 05:31N 51°25' E 002°36'0 0.0
2017-Mar-24 04:31N 51°25' E 002°36'0 0.0
2017-Mar-24 03:31N 51°25' E 002°36'0 0.0
2017-Mar-24 02:31N 51°25' E 002°36'0 0.0
2017-Mar-24 01:25N 51°25' E 002°36'0 0.0
2017-Mar-24 00:32N 51°25' E 002°36'0 0.0
2017-Mar-23 23:31N 51°25' E 002°36'0 0.0
2017-Mar-23 22:31N 51°25' E 002°36'0 0.0
2017-Mar-23 21:31N 51°25' E 002°36'0 0.0
2017-Mar-23 20:31N 51°25' E 002°36'0 0.0
2017-Mar-23 19:31N 51°25' E 002°36'0 0.0
2017-Mar-23 18:31N 51°25' E 002°36'0 0.0
2017-Mar-23 17:31N 51°25' E 002°36'0 0.0
2017-Mar-23 16:28N 51°25' E 002°36'0 0.0
2017-Mar-23 15:31N 51°25' E 002°36'0 0.0
2017-Mar-23 14:31N 51°25' E 002°36'0 0.0
2017-Mar-23 13:31N 51°25' E 002°36'0 0.0
2017-Mar-23 12:33N 51°25' E 002°36'0 0.0
2017-Mar-23 11:31N 51°25' E 002°36'0 0.0
2017-Mar-23 10:31N 51°25' E 002°36'0 0.0
2017-Mar-23 09:31N 51°25' E 002°36'0 0.0
2017-Mar-23 08:31N 51°25' E 002°36'0 0.0
2017-Mar-23 07:31N 51°25' E 002°36'0 0.0
2017-Mar-23 06:34N 51°25' E 002°36'1 0.8
2017-Mar-23 05:33N 51°24' E 002°36'1211.7
2017-Mar-23 04:34N 51°23' E 002°55'1414.4
2017-Mar-23 03:33N 51°24' E 003°18'1313.3
2017-Mar-23 02:33N 51°26' E 003°39'1211.5
2017-Mar-23 01:33N 51°23' E 003°57'9 9.2
2017-Mar-23 00:33N 51°24' E 004°11'9 8.9
2017-Mar-22 23:34N 51°16' E 004°17'1 0.8
2017-Mar-22 22:33N 51°16' E 004°16'0 0.4
2017-Mar-22 21:32N 51°16' E 004°15'0 0.0
2017-Mar-22 20:32N 51°16' E 004°15'0 0.0
2017-Mar-22 19:32N 51°16' E 004°15'0 0.0
2017-Mar-22 18:32N 51°16' E 004°15'0 0.0
2017-Mar-22 17:32N 51°16' E 004°15'0 0.0
2017-Mar-22 16:33N 51°16' E 004°15'0 0.0
2017-Mar-22 15:29N 51°16' E 004°15'0 0.0
2017-Mar-22 14:32N 51°16' E 004°15'0 0.0
2017-Mar-22 13:32N 51°16' E 004°15'0 0.0
2017-Mar-22 12:33N 51°16' E 004°15'0 0.0
2017-Mar-22 11:33N 51°16' E 004°15'0 0.0
2017-Mar-22 10:33N 51°16' E 004°15'0 0.0
2017-Mar-22 09:33N 51°16' E 004°15'0 0.0
2017-Mar-22 08:26N 51°16' E 004°15'0 0.0
2017-Mar-22 07:29N 51°16' E 004°15'0 0.0
2017-Mar-22 06:33N 51°16' E 004°15'0 0.0
2017-Mar-22 05:29N 51°16' E 004°15'0 0.0
2017-Mar-22 04:32N 51°16' E 004°15'0 0.0
2017-Mar-22 03:27N 51°16' E 004°15'0 0.0
2017-Mar-22 02:32N 51°16' E 004°15'0 0.0
2017-Mar-22 01:32N 51°16' E 004°15'0 0.0
2017-Mar-22 00:33N 51°16' E 004°15'0 0.0
2017-Mar-21 23:32N 51°16' E 004°15'0 0.0
2017-Mar-21 22:32N 51°16' E 004°15'0 0.0
2017-Mar-21 21:26N 51°16' E 004°15'0 0.0
2017-Mar-21 20:32N 51°16' E 004°15'0 0.0
2017-Mar-21 19:32N 51°16' E 004°15'0 0.0
2017-Mar-21 18:33N 51°16' E 004°15'0 0.0
2017-Mar-21 17:32N 51°16' E 004°15'0 0.3
2017-Mar-21 16:34N 51°16' E 004°16'1 0.9
2017-Mar-21 15:33N 51°16' E 004°17'6 6.5
2017-Mar-21 14:33N 51°22' E 004°13'10 7.5
2017-Mar-21 13:12N 51°23' E 003°57'710.4
2017-Mar-21 12:33N 51°21' E 003°47'10 9.3
2017-Mar-21 11:31N 51°26' E 003°33'8 8.8
2017-Mar-21 10:33N 51°24' E 003°20'1212.2
2017-Mar-21 09:33N 51°25' E 003°00'1211.7
2017-Mar-21 08:33N 51°36' E 003°09'1310.5
2017-Mar-21 07:19N 51°47' E 003°17'2 2.3
2017-Mar-21 06:25N 51°48' E 003°21'0 0.0
2017-Mar-21 05:25N 51°48' E 003°21'0 0.0
2017-Mar-21 04:31N 51°48' E 003°21'0 0.0
2017-Mar-21 03:31N 51°48' E 003°21'0 0.0
2017-Mar-21 01:28N 51°48' E 003°21'0 0.0
2017-Mar-21 00:25N 51°48' E 003°21'0 0.1
2017-Mar-20 23:31N 51°48' E 003°21'0 0.0
2017-Mar-20 22:28N 51°48' E 003°21'0 0.0
2017-Mar-20 21:22N 51°48' E 003°21'0 0.0
2017-Mar-20 20:25N 51°48' E 003°21'0 0.0
2017-Mar-20 19:31N 51°48' E 003°21'0 0.0
2017-Mar-20 18:28N 51°48' E 003°21'0 0.0
2017-Mar-20 17:19N 51°48' E 003°21'0 0.0
2017-Mar-20 16:28N 51°48' E 003°21'0 0.0
2017-Mar-20 15:28N 51°48' E 003°21'0 0.0
2017-Mar-20 14:28N 51°48' E 003°21'0 0.0
2017-Mar-20 13:31N 51°48' E 003°21'0 0.0
2017-Mar-20 12:31N 51°48' E 003°21'0 0.0
2017-Mar-20 11:22N 51°48' E 003°21'0 0.0
2017-Mar-20 10:19N 51°48' E 003°21'0 0.0
2017-Mar-20 09:31N 51°48' E 003°21'0 0.0
2017-Mar-20 08:31N 51°48' E 003°21'0 0.0
2017-Mar-20 07:31N 51°48' E 003°21'0 0.0
2017-Mar-20 06:31N 51°48' E 003°21'0 0.0
2017-Mar-20 05:28N 51°48' E 003°21'0 0.0
2017-Mar-20 04:25N 51°48' E 003°21'0 0.0
2017-Mar-20 03:31N 51°48' E 003°21'0 0.0
2017-Mar-20 02:28N 51°48' E 003°21'0 0.0
2017-Mar-20 01:28N 51°48' E 003°21'0 0.0
2017-Mar-19 23:10N 51°48' E 003°21'0 0.0
2017-Mar-19 22:31N 51°48' E 003°21'0 0.0
2017-Mar-19 21:31N 51°48' E 003°21'0 0.0
2017-Mar-19 20:28N 51°48' E 003°21'0 0.0
2017-Mar-19 19:31N 51°48' E 003°21'0 0.0
2017-Mar-19 18:31N 51°48' E 003°21'0 0.0
2017-Mar-19 17:19N 51°48' E 003°21'0 0.0
2017-Mar-19 14:10N 51°48' E 003°21'0 0.0
2017-Mar-19 13:13N 51°48' E 003°21'0 0.0
2017-Mar-19 09:31N 51°48' E 003°21'0 0.0
2017-Mar-19 08:32N 51°48' E 003°21'4 3.6
2017-Mar-19 07:32N 51°48' E 003°15'17212.3
2017-Mar-18 17:31N 54°12' E 000°38'1313.7
2017-Mar-18 16:33N 54°24' E 000°27'1313.5
2017-Mar-18 15:33N 54°35' E 000°16'1313.2
2017-Mar-18 14:33N 54°46' E 000°02'5713.3
2017-Mar-18 10:18N 55°30' W 000°59'1113.8
2017-Mar-18 09:30N 55°39' W 001°11'1914.4
2017-Mar-18 08:10N 55°52' W 001°36'914.7
2017-Mar-18 07:32N 55°56' W 001°51'1414.2
2017-Mar-18 06:33N 56°02' W 002°13'1414.0
2017-Mar-18 05:34N 56°07' W 002°36'1313.4
2017-Mar-18 04:34N 56°03' W 002°59'1211.9
2017-Mar-18 03:34N 56°01' W 003°20'1110.4
2017-Mar-18 02:32N 56°02' W 003°39'1 0.0
2017-Mar-16 17:19N 56°02' W 003°41'11 6.2
2017-Mar-16 15:33N 56°01' W 003°22'1010.2
2017-Mar-16 14:33N 56°05' W 003°05'0 0.1
2017-Mar-16 13:33N 56°05' W 003°05'0 0.0
2017-Mar-16 12:33N 56°05' W 003°05'0 0.0
2017-Mar-16 11:33N 56°05' W 003°05'0 0.0
2017-Mar-16 10:33N 56°05' W 003°05'0 0.0
2017-Mar-16 09:33N 56°05' W 003°05'0 0.0
2017-Mar-16 08:33N 56°05' W 003°05'0 0.0
2017-Mar-16 07:33N 56°05' W 003°05'0 0.0
2017-Mar-16 06:33N 56°05' W 003°05'0 0.0
2017-Mar-16 05:33N 56°05' W 003°05'0 0.0
2017-Mar-16 04:33N 56°05' W 003°05'0 0.0
2017-Mar-16 03:33N 56°05' W 003°05'0 0.0
2017-Mar-16 02:33N 56°05' W 003°05'0 0.0
2017-Mar-16 01:33N 56°05' W 003°05'0 0.0
2017-Mar-16 00:33N 56°05' W 003°05'0 0.0
2017-Mar-15 23:33N 56°05' W 003°05'0 0.0
2017-Mar-15 22:33N 56°05' W 003°05'0 0.1
2017-Mar-15 21:33N 56°05' W 003°05'0 0.0
2017-Mar-15 20:33N 56°05' W 003°05'0 0.0
2017-Mar-15 19:33N 56°05' W 003°05'0 0.0
2017-Mar-15 18:33N 56°05' W 003°05'0 0.0
2017-Mar-15 17:33N 56°05' W 003°05'0 0.0
2017-Mar-15 16:33N 56°05' W 003°05'0 0.1
2017-Mar-15 15:33N 56°05' W 003°05'8 8.4
2017-Mar-15 14:33N 56°07' W 002°51'1010.1
2017-Mar-15 13:33N 56°07' W 002°33'1312.7
2017-Mar-15 12:33N 56°04' W 002°11'1313.3
2017-Mar-15 11:33N 55°56' W 001°51'1110.5
2017-Mar-15 10:33N 55°49' W 001°38'1413.9
2017-Mar-15 09:33N 55°38' W 001°22'1313.3
2017-Mar-15 08:33N 55°28' W 001°07'1312.6
2017-Mar-15 07:33N 55°18' W 000°53'1212.0
2017-Mar-15 06:33N 55°08' W 000°41'2311.6
2017-Mar-15 04:33N 54°50' W 000°16'1211.6
2017-Mar-15 03:33N 54°41' W 000°04'1212.0
2017-Mar-15 02:33N 54°32' E 000°09'1312.8
2017-Mar-15 01:33N 54°22' E 000°23'1413.6
2017-Mar-15 00:32N 54°11' E 000°38'14612.2
2017-Mar-14 12:30N 52°19' E 003°16'1212.2
2017-Mar-14 11:32N 52°12' E 003°31'3 2.5
2017-Mar-14 10:26N 52°11' E 003°35'0 0.0
2017-Mar-14 09:28N 52°11' E 003°35'0 0.1
2017-Mar-14 08:14N 52°11' E 003°36'  

Dump ship's entire track history